Auburn, WA

6:17 AM PST on January 25, 2015 (GMT -0800)
Celery Ave | Change Station
CLOSE
Current Station
Personal Weather Station
Location: Algona, WA
Elevation: 66 ft
Nearby Weather Stations

Elev 66 ft 47.29 °N, 122.25 °W | Updated 58 seconds ago

Overcast
Overcast
51.6 °F
Feels Like 51.6 °F
N
1.0
Wind Variable Wind from South
Gusts 3.0 mph

Today
High -- | Low -- °F
--% Chance of Precip.
Yesterday
High -- | Low -- °F
Precip. -- in
7:43 AM 5:00 PM
Waxing Crescent, 32% visible
Pressure 30.23 in
Visibility 0.8 miles
Clouds Scattered Clouds 100 ft
Mostly Cloudy 400 ft
Dew Point 50 °F
Humidity 94%
Rainfall 0.00 in
Snow Depth Not available.
UV 0 out of 12
Pollen 5.30 out of 12
Air Quality Not available.
Flu Activity Not available.
METAR KSEA 251353Z 00000KT 3/4SM R16L/1400V2400FT BR SCT001 BKN004 11/09 A3021 RMK AO2 SLP236 T01060094

More Conditions Fewer Conditions

Pressure 30.23 in
Visibility 0.8 miles
Clouds Scattered Clouds 100 ft
Mostly Cloudy 400 ft
Dew Point 50 °F
Humidity 94%
Rainfall 0.00 in
Snow Depth Not available.
UV 0 out of 12
Pollen 5.30 out of 12
Air Quality Not available.
Flu Activity Not available.
METAR KSEA 251353Z 00000KT 3/4SM R16L/1400V2400FT BR SCT001 BKN004 11/09 A3021 RMK AO2 SLP236 T01060094

More Conditions Fewer Conditions

10-Day Weather Forecast

Almanac

Astronomy

Jan. 25, 2015 Rise Set
Actual Time
Civil Twilight
Nautical Twilight
Astronomical Twilight
Moon
Length of Visible Light
Length of Day
Tomorrow will be .
, % of the Moon is Illuminated

Today's Extremes

State Highs State Lows

Community

WunderPhotos

Upload Photos

1,789,893 photos uploaded!

WunderBlogs® & News

Nearby

Air Quality

  Air Quality AQ Index Pollutant
Not available.

Snow Depth

Station Depth Elevation

Earthquake Activity

City Distance Mag. Time & Date
Minimum magnitude displayed is 2.5.

Coastal Water Temperatures

Place Temperature

Nearby Weather Stations